createdAt,value
2023-03-28T00:01:39.855Z,83.06
2023-03-28T00:04:12.980Z,82.82
2023-03-28T00:06:45.785Z,82.77
2023-03-28T00:09:15.578Z,82.88
2023-03-28T00:11:48.809Z,82.77
2023-03-28T00:14:18.624Z,82.60
2023-03-28T00:16:48.508Z,82.53
2023-03-28T00:19:20.820Z,82.39
2023-03-28T00:21:55.020Z,82.37
2023-03-28T00:24:30.942Z,82.25
2023-03-28T00:27:06.963Z,82.02
2023-03-28T00:29:37.209Z,81.80
2023-03-28T00:32:08.697Z,81.71
2023-03-28T00:34:38.596Z,81.55
2023-03-28T00:37:15.008Z,81.51
2023-03-28T00:39:50.263Z,81.39
2023-03-28T00:42:32.076Z,81.36
2023-03-28T00:45:02.254Z,81.08
2023-03-28T00:47:45.955Z,81.03
2023-03-28T00:50:20.869Z,81.11
2023-03-28T00:52:57.427Z,81.07
2023-03-28T00:55:46.980Z,80.91
2023-03-28T00:58:22.609Z,80.88
2023-03-28T01:00:56.272Z,80.88
2023-03-28T01:03:29.748Z,80.82
2023-03-28T01:06:02.040Z,80.93
2023-03-28T01:08:38.643Z,80.80
2023-03-28T01:11:09.612Z,80.78
2023-03-28T01:13:44.085Z,80.73
2023-03-28T01:16:15.574Z,80.88
2023-03-28T01:18:51.806Z,80.83
2023-03-28T01:21:55.166Z,80.78
2023-03-28T01:24:51.654Z,80.65
2023-03-28T01:27:26.233Z,80.63
2023-03-28T01:30:34.568Z,80.74
2023-03-28T01:33:45.743Z,80.56
2023-03-28T01:36:43.082Z,80.42
2023-03-28T01:39:19.204Z,80.46
2023-03-28T01:41:57.776Z,80.46
2023-03-28T01:44:35.908Z,80.36
2023-03-28T01:47:17.367Z,80.45
2023-03-28T01:49:53.596Z,80.49
2023-03-28T01:52:34.600Z,80.48
2023-03-28T01:55:11.816Z,80.44
2023-03-28T01:57:44.390Z,80.54
2023-03-28T02:00:22.342Z,80.55
2023-03-28T02:02:59.569Z,80.70
2023-03-28T02:05:31.800Z,80.77
2023-03-28T02:08:13.648Z,80.89
2023-03-28T02:10:49.318Z,80.96
2023-03-28T02:13:22.024Z,80.87
2023-03-28T02:15:57.596Z,80.96
2023-03-28T02:18:32.842Z,80.99
2023-03-28T02:21:09.238Z,81.02
2023-03-28T02:23:48.323Z,81.18
2023-03-28T02:26:18.622Z,81.12
2023-03-28T02:28:52.849Z,81.20
2023-03-28T02:31:24.664Z,81.08
2023-03-28T02:33:59.611Z,81.25
2023-03-28T02:36:57.166Z,81.29
2023-03-28T02:39:52.680Z,81.47
2023-03-28T02:42:54.511Z,81.48
2023-03-28T02:46:00.558Z,81.45
2023-03-28T02:48:52.303Z,81.52
2023-03-28T02:51:31.838Z,81.43
2023-03-28T02:54:15.958Z,81.53
2023-03-28T02:57:01.634Z,81.49
2023-03-28T02:59:37.942Z,81.53
2023-03-28T03:02:08.580Z,81.64
2023-03-28T03:04:38.670Z,81.57
2023-03-28T03:07:09.888Z,81.62
2023-03-28T03:09:40.656Z,81.75
2023-03-28T03:12:17.843Z,81.79
2023-03-28T03:14:50.971Z,81.84
2023-03-28T03:17:22.700Z,81.88
2023-03-28T03:19:53.943Z,81.87
2023-03-28T03:22:26.442Z,81.96
2023-03-28T03:24:58.079Z,81.83
2023-03-28T03:27:32.464Z,81.96
2023-03-28T03:30:02.816Z,82.15
2023-03-28T03:32:33.593Z,82.16
2023-03-28T03:35:03.755Z,82.29
2023-03-28T03:37:33.698Z,82.25
2023-03-28T03:40:05.889Z,82.46
2023-03-28T03:42:39.953Z,82.44
2023-03-28T03:45:13.637Z,82.46
2023-03-28T03:47:45.844Z,82.68
2023-03-28T03:50:16.198Z,82.68
2023-03-28T03:52:47.608Z,82.86
2023-03-28T03:55:18.357Z,82.88
2023-03-28T03:57:50.969Z,82.83
2023-03-28T04:00:21.154Z,83.13
2023-03-28T04:02:51.217Z,83.19
2023-03-28T04:05:21.089Z,83.20
2023-03-28T04:07:55.026Z,83.36
2023-03-28T04:10:25.082Z,83.41
2023-03-28T04:12:57.562Z,83.45
2023-03-28T04:15:27.398Z,83.51
2023-03-28T04:18:05.698Z,83.50
2023-03-28T04:20:40.678Z,83.87
2023-03-28T04:23:10.911Z,83.83
2023-03-28T04:25:41.954Z,83.88
2023-03-28T04:28:21.079Z,84.00
2023-03-28T04:30:53.561Z,84.01
2023-03-28T04:33:25.631Z,83.97
2023-03-28T04:36:00.793Z,84.15
2023-03-28T04:38:32.267Z,84.39
2023-03-28T04:41:06.280Z,84.28
2023-03-28T04:43:39.632Z,84.54
2023-03-28T04:46:10.001Z,84.54
2023-03-28T04:48:40.462Z,84.46
2023-03-28T04:51:11.354Z,84.77
2023-03-28T04:53:41.283Z,84.69
2023-03-28T04:56:14.123Z,84.77
2023-03-28T04:58:48.486Z,84.75
2023-03-28T05:01:18.708Z,84.78
2023-03-28T05:03:48.771Z,84.95
2023-03-28T05:06:21.893Z,84.94
2023-03-28T05:08:52.552Z,84.95
2023-03-28T05:11:24.368Z,84.98
2023-03-28T05:13:57.132Z,85.06
2023-03-28T05:16:26.946Z,85.10
2023-03-28T05:18:56.795Z,85.17
2023-03-28T05:21:29.208Z,85.01
2023-03-28T05:23:59.308Z,85.04
2023-03-28T05:26:29.163Z,85.09
2023-03-28T05:29:01.673Z,85.36
2023-03-28T05:31:34.956Z,85.54
2023-03-28T05:34:04.781Z,85.62
2023-03-28T05:36:34.604Z,85.60
2023-03-28T05:39:05.412Z,85.83
2023-03-28T05:41:38.195Z,86.12
2023-03-28T05:44:10.824Z,86.16
2023-03-28T05:46:40.864Z,86.55
2023-03-28T05:49:12.396Z,86.64
2023-03-28T05:51:42.246Z,86.82
2023-03-28T05:54:12.394Z,86.81
2023-03-28T05:56:42.414Z,86.77
2023-03-28T05:59:15.858Z,86.77
2023-03-28T06:01:46.810Z,86.88
2023-03-28T06:04:17.189Z,86.81
2023-03-28T06:06:48.873Z,86.90
2023-03-28T06:09:19.069Z,87.13
2023-03-28T06:11:49.049Z,87.18
2023-03-28T06:14:21.818Z,87.24
2023-03-28T06:16:51.988Z,87.14
2023-03-28T06:19:22.349Z,87.34
2023-03-28T06:21:53.468Z,87.48
2023-03-28T06:24:24.396Z,87.46
2023-03-28T06:27:00.501Z,87.46
2023-03-28T06:29:34.343Z,87.57
2023-03-28T06:32:04.467Z,87.75
2023-03-28T06:34:34.438Z,87.72
2023-03-28T06:40:35.672Z,88.10
2023-03-28T06:43:05.916Z,88.29
2023-03-28T06:45:38.534Z,88.41
2023-03-28T06:48:33.600Z,88.47
2023-03-28T06:51:26.166Z,88.89
2023-03-28T07:01:09.648Z,89.54
2023-03-28T07:03:51.451Z,89.64
2023-03-28T07:06:57.989Z,89.56
2023-03-28T07:10:07.908Z,89.61
2023-03-28T07:12:37.904Z,89.54
2023-03-28T07:15:17.822Z,89.33
2023-03-28T07:20:32.314Z,89.03
2023-03-28T07:23:18.080Z,88.90
2023-03-28T07:25:49.509Z,88.83
2023-03-28T07:32:08.609Z,88.71
2023-03-28T07:34:59.975Z,88.73
2023-03-28T07:37:35.150Z,88.71
2023-03-28T07:40:05.657Z,88.72
2023-03-28T07:42:37.075Z,88.89
2023-03-28T07:45:11.771Z,88.85
2023-03-28T07:50:45.633Z,88.77
2023-03-28T07:54:01.943Z,89.10
2023-03-28T07:57:12.274Z,88.99
2023-03-28T08:03:44.746Z,89.32
2023-03-28T08:06:39.223Z,89.46
2023-03-28T08:15:24.656Z,89.26
2023-03-28T08:17:56.092Z,88.89
2023-03-28T08:20:36.368Z,88.63
2023-03-28T08:23:15.002Z,88.16
2023-03-28T08:25:50.640Z,87.39
2023-03-28T08:28:26.359Z,86.65
2023-03-28T08:30:56.346Z,86.02
2023-03-28T08:33:30.078Z,85.18
2023-03-28T08:36:00.040Z,84.39
2023-03-28T08:38:30.038Z,83.69
2023-03-28T08:41:14.609Z,83.05
2023-03-28T08:43:59.379Z,82.32
2023-03-28T08:46:34.242Z,81.65
2023-03-28T08:49:22.212Z,81.12
2023-03-28T08:52:17.712Z,80.50
2023-03-28T08:55:12.055Z,80.11
2023-03-28T08:58:02.819Z,79.74
2023-03-28T09:01:17.457Z,79.38
2023-03-28T09:03:47.391Z,78.96
2023-03-28T09:06:27.278Z,78.65
2023-03-28T09:09:32.558Z,78.20
2023-03-28T09:12:10.866Z,77.78
2023-03-28T09:15:16.592Z,77.55
2023-03-28T09:18:13.124Z,77.20
2023-03-28T09:21:14.715Z,77.07
2023-03-28T09:30:52.161Z,76.07
2023-03-28T09:33:28.240Z,75.89
2023-03-28T09:41:41.985Z,75.38
2023-03-28T09:44:16.057Z,75.24
2023-03-28T09:46:51.201Z,75.02
2023-03-28T09:49:24.642Z,74.81
2023-03-28T09:51:57.762Z,74.59
2023-03-28T09:54:33.117Z,74.42
2023-03-28T09:57:06.095Z,73.96
2023-03-28T09:59:37.786Z,73.84
2023-03-28T10:02:29.185Z,73.74
2023-03-28T10:04:59.342Z,73.60
2023-03-28T10:07:35.664Z,73.42
2023-03-28T10:13:02.508Z,73.00
2023-03-28T10:21:57.119Z,72.37
2023-03-28T10:24:28.423Z,72.07
2023-03-28T10:27:01.305Z,72.01
2023-03-28T10:29:31.583Z,71.77
2023-03-28T10:32:27.473Z,71.58
2023-03-28T10:37:38.663Z,71.47
2023-03-28T10:40:29.413Z,71.42
2023-03-28T10:43:00.314Z,71.42
2023-03-28T10:45:37.482Z,71.22
2023-03-28T10:48:16.221Z,71.12
2023-03-28T10:50:49.276Z,70.85
2023-03-28T10:53:49.589Z,70.86
2023-03-28T10:56:29.552Z,70.60
2023-03-28T10:59:15.036Z,70.39
2023-03-28T11:05:07.487Z,70.06
2023-03-28T11:07:45.796Z,70.04
2023-03-28T11:10:26.503Z,69.95
2023-03-28T11:13:29.445Z,69.83
2023-03-28T11:16:30.293Z,69.72
2023-03-28T11:19:12.647Z,69.61
2023-03-28T11:21:53.144Z,69.52
2023-03-28T11:24:32.529Z,69.39
2023-03-28T11:27:16.294Z,69.34
2023-03-28T11:29:49.974Z,69.50
2023-03-28T11:32:24.489Z,69.44
2023-03-28T11:35:05.870Z,69.34
2023-03-28T11:37:42.952Z,69.30
2023-03-28T11:40:25.724Z,69.27
2023-03-28T11:43:03.334Z,69.14
2023-03-28T11:45:50.454Z,69.09
2023-03-28T11:48:28.070Z,69.13
2023-03-28T11:51:05.907Z,69.15
2023-03-28T11:53:40.665Z,69.29
2023-03-28T11:56:23.611Z,69.39
2023-03-28T11:59:02.481Z,69.43
2023-03-28T12:01:35.883Z,69.34
2023-03-28T12:04:15.342Z,69.39
2023-03-28T12:07:02.224Z,69.24
2023-03-28T12:09:40.275Z,69.16
2023-03-28T12:12:20.394Z,69.16
2023-03-28T12:15:00.389Z,69.11
2023-03-28T12:25:33.812Z,69.05
2023-03-28T12:28:10.373Z,69.06
2023-03-28T12:30:49.118Z,69.09
2023-03-28T12:33:31.043Z,68.86
2023-03-28T12:36:10.743Z,68.78
2023-03-28T12:38:45.011Z,68.94
2023-03-28T12:41:18.218Z,68.74
2023-03-28T12:43:55.215Z,68.76
2023-03-28T12:46:31.285Z,68.70
2023-03-28T12:49:04.758Z,68.45
2023-03-28T12:51:39.726Z,68.41
2023-03-28T12:54:13.299Z,68.33
2023-03-28T12:56:43.892Z,68.33
2023-03-28T12:59:52.700Z,68.33
2023-03-28T13:02:34.600Z,68.27
2023-03-28T13:05:14.073Z,68.09
2023-03-28T13:08:00.718Z,68.05
2023-03-28T13:10:37.382Z,67.88
2023-03-28T13:13:20.001Z,67.75
2023-03-28T13:15:59.411Z,67.74
2023-03-28T13:18:51.521Z,67.80
2023-03-28T13:27:33.083Z,67.47
2023-03-28T13:30:10.976Z,67.50
2023-03-28T13:32:46.325Z,67.31
2023-03-28T13:35:47.790Z,67.28
2023-03-28T13:38:26.211Z,67.03
2023-03-28T13:40:59.939Z,67.12
2023-03-28T13:43:43.767Z,67.10
2023-03-28T13:46:17.175Z,67.08
2023-03-28T13:48:53.369Z,67.08
2023-03-28T13:51:29.509Z,66.95
2023-03-28T13:53:59.488Z,66.97
2023-03-28T13:56:33.095Z,66.87
2023-03-28T13:59:07.256Z,66.80
2023-03-28T14:01:38.923Z,66.84
2023-03-28T14:04:13.853Z,66.75
2023-03-28T14:06:52.866Z,66.83
2023-03-28T14:09:24.929Z,66.69
2023-03-28T14:11:55.095Z,66.63
2023-03-28T14:14:32.804Z,66.73
2023-03-28T14:17:04.566Z,66.55
2023-03-28T14:19:41.497Z,66.52
2023-03-28T14:22:18.723Z,66.46
2023-03-28T14:24:52.451Z,66.55
2023-03-28T14:27:37.493Z,66.57
2023-03-28T14:30:21.185Z,66.62
2023-03-28T14:33:02.029Z,66.73
2023-03-28T14:35:33.814Z,66.82
2023-03-28T14:38:09.664Z,66.86
2023-03-28T14:40:44.342Z,66.87
2023-03-28T14:43:27.349Z,66.97
2023-03-28T14:46:03.089Z,67.01
2023-03-28T14:48:33.595Z,66.89
2023-03-28T14:51:07.598Z,67.01
2023-03-28T14:53:45.994Z,67.12
2023-03-28T14:56:20.380Z,67.10
2023-03-28T14:58:53.126Z,67.02
2023-03-28T15:01:25.845Z,66.92
2023-03-28T15:03:59.550Z,66.92
2023-03-28T15:06:29.899Z,66.86
2023-03-28T15:09:12.639Z,67.06
2023-03-28T15:14:37.138Z,67.07
2023-03-28T15:17:09.663Z,67.14
2023-03-28T15:19:51.475Z,67.02
2023-03-28T15:22:26.843Z,67.03
2023-03-28T15:25:01.053Z,66.89
2023-03-28T15:27:34.767Z,66.81
2023-03-28T15:44:41.963Z,65.76
2023-03-28T15:47:22.069Z,65.69
2023-03-28T15:49:52.636Z,65.76
2023-03-28T15:52:24.327Z,65.82
2023-03-28T15:54:56.858Z,65.98
2023-03-28T15:57:32.965Z,66.09
2023-03-28T16:00:03.212Z,66.26
2023-03-28T16:02:37.554Z,66.48
2023-03-28T16:05:29.014Z,66.80
2023-03-28T16:08:00.287Z,67.06
2023-03-28T16:10:30.382Z,67.30
2023-03-28T16:13:03.501Z,67.55
2023-03-28T16:15:33.790Z,67.88
2023-03-28T16:18:03.811Z,68.01
2023-03-28T16:20:33.802Z,68.30
2023-03-28T16:23:04.461Z,68.57
2023-03-28T16:25:34.336Z,68.87
2023-03-28T16:28:07.041Z,69.18
2023-03-28T16:30:40.734Z,69.48
2023-03-28T16:33:10.861Z,69.76
2023-03-28T16:35:40.958Z,70.13
2023-03-28T16:38:14.236Z,70.47
2023-03-28T16:40:45.586Z,70.90
2023-03-28T16:43:18.474Z,71.32
2023-03-28T16:45:52.523Z,71.79
2023-03-28T16:48:22.555Z,72.24
2023-03-28T16:50:56.308Z,72.69
2023-03-28T16:53:29.731Z,73.09
2023-03-28T16:55:59.887Z,73.46
2023-03-28T16:58:41.890Z,73.83
2023-03-28T17:01:18.107Z,74.25
2023-03-28T17:03:48.402Z,74.58
2023-03-28T17:06:27.734Z,74.89
2023-03-28T17:08:59.017Z,75.16
2023-03-28T17:11:30.662Z,75.46
2023-03-28T17:14:03.093Z,75.74
2023-03-28T17:16:32.978Z,75.88
2023-03-28T17:19:02.954Z,76.16
2023-03-28T17:24:25.910Z,76.44
2023-03-28T17:26:56.267Z,76.64
2023-03-28T17:29:30.348Z,76.74
2023-03-28T17:32:00.299Z,76.89
2023-03-28T17:34:32.078Z,77.03
2023-03-28T17:37:02.428Z,77.10
2023-03-28T17:39:32.989Z,77.19
2023-03-28T17:42:02.803Z,77.30
2023-03-28T17:44:35.577Z,77.31
2023-03-28T17:47:05.497Z,77.48
2023-03-28T17:49:36.100Z,77.57
2023-03-28T17:52:06.384Z,77.60
2023-03-28T17:54:36.366Z,77.74
2023-03-28T17:57:08.218Z,77.85
2023-03-28T17:59:40.767Z,77.89
2023-03-28T18:02:10.646Z,77.98
2023-03-28T18:04:40.711Z,78.07
2023-03-28T18:07:16.461Z,78.08
2023-03-28T18:09:53.595Z,78.12
2023-03-28T18:12:23.455Z,78.12
2023-03-28T18:14:59.509Z,78.41
2023-03-28T18:17:31.024Z,78.59
2023-03-28T18:20:02.031Z,78.80
2023-03-28T18:22:32.125Z,79.06
2023-03-28T18:25:03.221Z,79.30
2023-03-28T18:27:33.104Z,79.43
2023-03-28T18:30:08.444Z,79.79
2023-03-28T18:32:39.384Z,80.06
2023-03-28T18:35:10.420Z,80.28
2023-03-28T18:37:46.688Z,80.48
2023-03-28T18:40:17.156Z,80.92
2023-03-28T18:42:47.146Z,81.10
2023-03-28T18:45:19.773Z,81.42
2023-03-28T18:47:49.617Z,81.70
2023-03-28T18:50:19.726Z,81.99
2023-03-28T18:52:49.514Z,82.22
2023-03-28T18:55:19.740Z,82.38
2023-03-28T18:57:49.537Z,82.68
2023-03-28T19:00:22.986Z,82.96
2023-03-28T19:02:53.309Z,83.13
2023-03-28T19:05:24.760Z,83.27
2023-03-28T19:07:55.763Z,83.52
2023-03-28T19:10:26.218Z,83.79
2023-03-28T19:12:56.365Z,83.94
2023-03-28T19:15:29.057Z,84.22
2023-03-28T19:18:02.984Z,84.44
2023-03-28T19:20:32.904Z,84.69
2023-03-28T19:23:02.811Z,84.87
2023-03-28T19:25:34.762Z,85.07
2023-03-28T19:28:09.276Z,85.39
2023-03-28T19:30:43.996Z,85.50
2023-03-28T19:33:14.539Z,85.74
2023-03-28T19:35:44.817Z,85.89
2023-03-28T19:38:18.459Z,86.20
2023-03-28T19:40:48.352Z,86.15
2023-03-28T19:43:24.061Z,86.57
2023-03-28T19:45:56.743Z,86.65
2023-03-28T19:48:28.290Z,86.84
2023-03-28T19:50:58.088Z,87.09
2023-03-28T19:53:27.990Z,87.26
2023-03-28T19:55:59.418Z,87.42
2023-03-28T19:58:31.231Z,87.78
2023-03-28T20:01:04.245Z,87.94
2023-03-28T20:03:34.302Z,88.01
2023-03-28T20:06:09.328Z,88.36
2023-03-28T20:08:39.314Z,88.57
2023-03-28T20:11:15.020Z,88.67
2023-03-28T20:13:45.063Z,88.93
2023-03-28T20:16:17.572Z,89.06
2023-03-28T20:18:49.287Z,89.28
2023-03-28T20:21:23.597Z,89.46
2023-03-28T20:23:55.182Z,89.62
2023-03-28T20:26:27.344Z,89.82
2023-03-28T20:28:59.637Z,90.05
2023-03-28T20:31:32.218Z,90.24
2023-03-28T20:34:03.141Z,90.39
2023-03-28T20:36:33.564Z,90.67
2023-03-28T20:39:03.938Z,90.66
2023-03-28T20:41:33.932Z,91.03
2023-03-28T20:44:06.062Z,91.14
2023-03-28T20:46:42.463Z,91.29
2023-03-28T20:49:12.275Z,91.54
2023-03-28T20:51:44.193Z,91.70
2023-03-28T20:54:14.168Z,91.85
2023-03-28T20:56:47.024Z,91.94
2023-03-28T20:59:16.795Z,92.18
2023-03-28T21:01:49.652Z,92.39
2023-03-28T21:04:19.417Z,92.39
2023-03-28T21:06:50.381Z,92.56
2023-03-28T21:09:20.862Z,92.67
2023-03-28T21:11:50.618Z,92.94
2023-03-28T21:14:20.656Z,93.01
2023-03-28T21:16:56.895Z,93.11
2023-03-28T21:19:29.213Z,93.17
2023-03-28T21:21:59.467Z,93.40
2023-03-28T21:24:29.294Z,93.44
2023-03-28T21:26:59.083Z,93.57
2023-03-28T21:29:28.855Z,93.70
2023-03-28T21:32:01.324Z,93.83
2023-03-28T21:34:34.191Z,93.91
2023-03-28T21:37:04.004Z,94.03
2023-03-28T21:39:33.806Z,94.13
2023-03-28T21:42:03.591Z,94.24
2023-03-28T21:44:33.777Z,94.30
2023-03-28T21:47:09.105Z,94.51
2023-03-28T21:49:39.314Z,94.60
2023-03-28T21:52:09.491Z,94.64
2023-03-28T21:54:39.265Z,94.70
2023-03-28T21:57:09.104Z,94.80
2023-03-28T21:59:41.254Z,94.83
2023-03-28T22:02:13.832Z,94.88
2023-03-28T22:04:44.195Z,94.91
2023-03-28T22:07:13.958Z,95.08
2023-03-28T22:09:44.810Z,95.11
2023-03-28T22:12:15.055Z,95.16
2023-03-28T22:14:44.816Z,95.29
2023-03-28T22:17:18.740Z,95.36
2023-03-28T22:19:54.075Z,95.38
2023-03-28T22:22:28.354Z,95.47
2023-03-28T22:24:58.720Z,95.50
2023-03-28T22:27:30.430Z,95.43
2023-03-28T22:30:00.569Z,95.66
2023-03-28T22:32:32.980Z,95.59
2023-03-28T22:35:02.907Z,95.66
2023-03-28T22:37:32.682Z,95.66
2023-03-28T22:40:02.523Z,95.75
2023-03-28T22:42:33.085Z,95.82
2023-03-28T22:45:02.871Z,95.79
2023-03-28T22:47:39.696Z,95.91
2023-03-28T22:50:11.963Z,95.87
2023-03-28T22:52:42.155Z,96.02
2023-03-28T22:55:13.779Z,95.97
2023-03-28T22:57:44.729Z,96.07
2023-03-28T23:00:17.489Z,96.08
2023-03-28T23:02:49.948Z,96.04
2023-03-28T23:05:21.769Z,96.20
2023-03-28T23:07:55.719Z,96.19
2023-03-28T23:10:25.529Z,96.21
2023-03-28T23:12:55.305Z,96.28
2023-03-28T23:15:25.362Z,96.36
2023-03-28T23:17:58.271Z,96.36
2023-03-28T23:20:30.482Z,96.39
2023-03-28T23:23:00.246Z,96.50
2023-03-28T23:25:30.878Z,96.48
2023-03-28T23:28:00.693Z,96.53
2023-03-28T23:30:30.465Z,96.58
2023-03-28T23:33:03.024Z,96.53
2023-03-28T23:35:32.962Z,96.66
2023-03-28T23:38:02.800Z,96.70
2023-03-28T23:40:32.593Z,96.68
2023-03-28T23:43:02.389Z,96.73
2023-03-28T23:45:32.235Z,96.71
2023-03-28T23:48:04.770Z,96.76
2023-03-28T23:50:36.342Z,96.73
2023-03-28T23:53:06.747Z,96.88
2023-03-28T23:55:36.640Z,96.91
2023-03-28T23:58:06.957Z,96.80
